createdAt,value
2019-06-26T00:00:55.584Z,23.85
2019-06-26T00:03:25.967Z,24.57
2019-06-26T00:05:56.405Z,25.37
2019-06-26T00:08:26.781Z,24.05
2019-06-26T00:10:58.842Z,25.23
2019-06-26T00:13:29.296Z,24.35
2019-06-26T00:15:59.697Z,24.23
2019-06-26T00:18:30.409Z,25.65
2019-06-26T00:21:00.791Z,25.20
2019-06-26T00:23:32.751Z,26.23
2019-06-26T00:26:04.975Z,26.17
2019-06-26T00:28:35.421Z,27.32
2019-06-26T00:31:06.629Z,24.60
2019-06-26T00:33:37.058Z,24.75
2019-06-26T00:36:07.507Z,26.40
2019-06-26T00:38:40.205Z,25.05
2019-06-26T00:41:10.160Z,26.77
2019-06-26T00:43:42.531Z,25.45
2019-06-26T00:46:12.656Z,26.77
2019-06-26T00:48:43.145Z,27.45
2019-06-26T00:51:13.512Z,25.32
2019-06-26T00:53:43.945Z,26.60
2019-06-26T00:56:17.598Z,27.98
2019-06-26T00:58:48.024Z,27.65
2019-06-26T01:01:18.411Z,27.25
2019-06-26T01:03:50.461Z,27.73
2019-06-26T01:06:38.982Z,29.18
2019-06-26T01:09:09.540Z,27.60
2019-06-26T01:11:41.505Z,29.65
2019-06-26T01:14:11.766Z,28.65
2019-06-26T01:16:42.050Z,27.87
2019-06-26T01:19:12.507Z,28.17
2019-06-26T01:21:42.921Z,28.85
2019-06-26T01:24:13.300Z,30.08
2019-06-26T01:26:43.719Z,30.72
2019-06-26T01:29:14.127Z,27.48
2019-06-26T01:31:44.504Z,30.37
2019-06-26T01:34:14.910Z,28.67
2019-06-26T01:36:45.297Z,29.35
2019-06-26T01:39:15.823Z,29.07
2019-06-26T01:41:47.861Z,28.98
2019-06-26T01:44:19.811Z,29.45
2019-06-26T01:46:50.221Z,28.65
2019-06-26T01:49:22.287Z,29.40
2019-06-26T01:51:52.677Z,29.57
2019-06-26T01:54:23.384Z,29.50
2019-06-26T01:56:53.888Z,28.52
2019-06-26T01:59:24.392Z,28.42
2019-06-26T02:01:54.844Z,29.42
2019-06-26T02:04:25.252Z,29.63
2019-06-26T02:06:55.666Z,28.73
2019-06-26T02:09:27.584Z,29.30
2019-06-26T02:12:00.405Z,27.87
2019-06-26T02:14:31.666Z,29.92
2019-06-26T02:17:02.534Z,28.52
2019-06-26T02:19:33.022Z,27.52
2019-06-26T02:22:03.504Z,30.08
2019-06-26T02:24:33.909Z,28.73
2019-06-26T02:27:04.312Z,29.55
2019-06-26T02:29:34.707Z,29.92
2019-06-26T02:32:05.178Z,30.65
2019-06-26T02:34:35.631Z,30.95
2019-06-26T02:37:07.621Z,31.27
2019-06-26T02:39:38.135Z,31.80
2019-06-26T02:42:08.554Z,31.27
2019-06-26T02:44:52.434Z,32.38
2019-06-26T02:47:19.190Z,33.85
2019-06-26T02:49:43.381Z,34.35
2019-06-26T02:52:13.963Z,34.63
2019-06-26T02:54:44.340Z,32.90
2019-06-26T02:57:14.737Z,31.27
2019-06-26T02:59:45.154Z,31.87
2019-06-26T03:02:15.587Z,31.73
2019-06-26T03:04:47.497Z,32.75
2019-06-26T03:07:17.888Z,31.57
2019-06-26T03:09:50.597Z,33.45
2019-06-26T03:12:21.018Z,30.25
2019-06-26T03:15:04.673Z,30.37
2019-06-26T03:17:23.591Z,32.55
2019-06-26T03:19:55.573Z,31.62
2019-06-26T03:22:25.992Z,29.90
2019-06-26T03:24:56.383Z,31.05
2019-06-26T03:27:26.786Z,31.50
2019-06-26T03:29:57.168Z,32.33
2019-06-26T03:32:27.607Z,32.05
2019-06-26T03:34:58.090Z,32.50
2019-06-26T03:37:28.689Z,30.88
2019-06-26T03:40:00.773Z,30.08
2019-06-26T03:42:31.169Z,33.10
2019-06-26T03:45:01.695Z,31.87
2019-06-26T03:47:32.333Z,30.68
2019-06-26T03:50:04.572Z,31.82
2019-06-26T03:52:35.009Z,33.38
2019-06-26T03:55:06.333Z,30.85
2019-06-26T03:57:36.728Z,32.67
2019-06-26T04:00:08.883Z,32.35
2019-06-26T04:02:39.314Z,32.13
2019-06-26T04:05:09.882Z,33.18
2019-06-26T04:07:40.672Z,33.18
2019-06-26T04:10:15.655Z,32.98
2019-06-26T04:12:46.864Z,32.53
2019-06-26T04:15:17.377Z,31.25
2019-06-26T04:17:47.793Z,32.35
2019-06-26T04:20:18.367Z,31.12
2019-06-26T04:22:49.278Z,32.00
2019-06-26T04:25:19.771Z,31.97
2019-06-26T04:27:50.404Z,30.30
2019-06-26T04:30:21.513Z,32.38
2019-06-26T04:32:51.892Z,32.03
2019-06-26T04:35:23.786Z,31.37
2019-06-26T04:37:54.226Z,29.95
2019-06-26T04:40:24.741Z,31.82
2019-06-26T04:42:55.386Z,34.03
2019-06-26T04:45:25.823Z,29.95
2019-06-26T04:47:57.712Z,33.08
2019-06-26T04:50:28.162Z,32.33
2019-06-26T04:52:58.562Z,31.60
2019-06-26T04:55:29.045Z,32.67
2019-06-26T04:57:59.452Z,32.17
2019-06-26T05:00:29.905Z,31.97
2019-06-26T05:03:00.353Z,31.87
2019-06-26T05:05:39.724Z,33.05
2019-06-26T05:08:02.864Z,32.45
2019-06-26T05:10:33.318Z,30.70
2019-06-26T05:13:03.826Z,32.00
2019-06-26T05:15:34.279Z,31.62
2019-06-26T05:18:04.717Z,32.23
2019-06-26T05:20:35.155Z,30.62
2019-06-26T05:23:05.798Z,31.70
2019-06-26T05:25:36.210Z,29.23
2019-06-26T05:28:08.463Z,29.48
2019-06-26T05:30:39.089Z,30.02
2019-06-26T05:33:09.463Z,29.63
2019-06-26T05:35:39.884Z,29.55
2019-06-26T05:38:10.371Z,29.10
2019-06-26T05:40:41.032Z,29.70
2019-06-26T05:43:13.705Z,28.80
2019-06-26T05:45:44.196Z,26.95
2019-06-26T05:48:14.616Z,26.65
2019-06-26T05:50:45.207Z,27.17
2019-06-26T05:53:15.644Z,26.17
2019-06-26T05:55:46.151Z,28.07
2019-06-26T05:58:16.663Z,26.07
2019-06-26T06:00:48.110Z,25.70
2019-06-26T06:03:18.762Z,25.68
2019-06-26T06:05:49.355Z,26.30
2019-06-26T06:08:19.794Z,25.92
2019-06-26T06:10:50.283Z,24.18
2019-06-26T06:13:20.688Z,24.90
2019-06-26T06:15:51.114Z,26.17
2019-06-26T06:18:21.478Z,24.18
2019-06-26T06:20:51.877Z,25.75
2019-06-26T06:23:23.156Z,25.17
2019-06-26T06:25:53.584Z,23.92
2019-06-26T06:28:23.959Z,23.60
2019-06-26T06:30:54.376Z,23.25
2019-06-26T06:33:24.935Z,25.82
2019-06-26T06:35:55.423Z,24.35
2019-06-26T06:38:25.791Z,23.65
2019-06-26T06:40:55.894Z,25.32
2019-06-26T06:43:26.239Z,25.08
2019-06-26T06:45:56.704Z,23.05
2019-06-26T06:48:27.126Z,23.90
2019-06-26T06:50:58.323Z,25.27
2019-06-26T06:53:28.751Z,23.50
2019-06-26T06:55:59.139Z,23.62
2019-06-26T06:58:30.332Z,23.25
2019-06-26T07:01:02.605Z,22.60
2019-06-26T07:03:34.673Z,24.30
2019-06-26T07:06:06.825Z,24.18
2019-06-26T07:08:37.419Z,24.27
2019-06-26T07:11:07.815Z,24.70
2019-06-26T07:13:38.297Z,22.87
2019-06-26T07:16:10.134Z,22.58
2019-06-26T07:18:40.597Z,21.90
2019-06-26T07:21:12.473Z,20.85
2019-06-26T07:23:42.979Z,21.65
2019-06-26T07:26:13.560Z,20.85
2019-06-26T07:28:44.061Z,20.17
2019-06-26T07:31:14.509Z,19.90
2019-06-26T07:33:45.035Z,19.77
2019-06-26T07:36:15.464Z,20.52
2019-06-26T07:38:45.837Z,20.05
2019-06-26T07:41:16.263Z,20.55
2019-06-26T07:43:46.646Z,20.60
2019-06-26T07:46:17.257Z,20.55
2019-06-26T07:48:47.702Z,19.57
2019-06-26T07:51:18.200Z,17.67
2019-06-26T07:53:48.670Z,18.60
2019-06-26T07:56:19.084Z,18.67
2019-06-26T07:58:49.468Z,18.40
2019-06-26T08:01:19.860Z,17.90
2019-06-26T08:03:50.573Z,18.37
2019-06-26T08:06:21.101Z,17.90
2019-06-26T08:08:51.540Z,17.37
2019-06-26T08:11:23.513Z,18.37
2019-06-26T08:13:53.889Z,20.17
2019-06-26T08:16:24.317Z,18.17
2019-06-26T08:18:54.768Z,18.67
2019-06-26T08:21:25.244Z,18.27
2019-06-26T08:23:55.674Z,18.55
2019-06-26T08:26:27.637Z,19.40
2019-06-26T08:28:58.084Z,19.77
2019-06-26T08:31:28.488Z,20.65
2019-06-26T08:33:59.002Z,22.45
2019-06-26T08:36:29.549Z,22.48
2019-06-26T08:38:59.941Z,20.70
2019-06-26T08:41:30.489Z,19.80
2019-06-26T08:44:00.942Z,19.60
2019-06-26T08:46:31.420Z,21.85
2019-06-26T08:49:03.307Z,22.20
2019-06-26T08:51:33.759Z,23.55
2019-06-26T08:54:04.888Z,25.40
2019-06-26T08:56:36.308Z,25.27
2019-06-26T08:59:06.703Z,26.00
2019-06-26T09:01:37.181Z,26.10
2019-06-26T09:04:07.572Z,25.77
2019-06-26T09:06:38.077Z,22.30
2019-06-26T09:09:08.525Z,21.07
2019-06-26T09:11:38.957Z,18.80
2019-06-26T09:14:09.387Z,18.35
2019-06-26T09:16:39.806Z,17.15
2019-06-26T09:19:10.177Z,17.85
2019-06-26T09:21:40.769Z,15.72
2019-06-26T09:24:11.305Z,14.68
2019-06-26T09:26:41.770Z,15.30
2019-06-26T09:29:12.272Z,14.20
2019-06-26T09:31:42.663Z,13.83
2019-06-26T09:34:13.141Z,13.75
2019-06-26T09:36:43.588Z,13.75
2019-06-26T09:39:14.116Z,14.70
2019-06-26T09:41:46.167Z,12.88
2019-06-26T09:44:18.042Z,13.25
2019-06-26T09:46:48.461Z,13.53
2019-06-26T09:49:20.404Z,12.45
2019-06-26T09:51:50.826Z,12.33
2019-06-26T09:54:21.314Z,12.13
2019-06-26T09:56:51.704Z,12.30
2019-06-26T09:59:22.112Z,11.48
2019-06-26T10:01:52.840Z,10.70
2019-06-26T10:04:23.643Z,10.03
2019-06-26T10:06:54.129Z,11.55
2019-06-26T10:09:24.595Z,9.48
2019-06-26T10:11:55.090Z,9.30
2019-06-26T10:14:46.097Z,8.18
2019-06-26T10:16:59.131Z,9.60
2019-06-26T10:19:29.689Z,9.10
2019-06-26T10:22:00.244Z,8.73
2019-06-26T10:24:30.623Z,8.13
2019-06-26T10:27:01.134Z,8.93
2019-06-26T10:29:31.557Z,8.50
2019-06-26T10:32:02.095Z,7.28
2019-06-26T10:34:32.684Z,8.53
2019-06-26T10:37:03.258Z,8.48
2019-06-26T10:39:33.766Z,8.58
2019-06-26T10:42:07.443Z,8.18
2019-06-26T10:44:37.994Z,8.63
2019-06-26T10:47:08.497Z,7.92
2019-06-26T10:49:38.908Z,8.48
2019-06-26T10:52:10.804Z,9.58
2019-06-26T10:54:44.326Z,8.98
2019-06-26T10:57:13.337Z,7.95
2019-06-26T10:59:43.785Z,8.53
2019-06-26T11:02:16.862Z,8.18
2019-06-26T11:04:46.302Z,8.33
2019-06-26T11:07:16.708Z,8.43
2019-06-26T11:09:47.256Z,7.50
2019-06-26T11:12:19.519Z,7.97
2019-06-26T11:14:55.473Z,8.18
2019-06-26T11:17:25.967Z,8.25
2019-06-26T11:19:56.340Z,9.03
2019-06-26T11:22:26.801Z,8.88
2019-06-26T11:24:59.100Z,8.75
2019-06-26T11:27:29.565Z,9.15
2019-06-26T11:30:00.044Z,8.25
2019-06-26T11:32:30.463Z,8.43
2019-06-26T11:35:02.005Z,9.43
2019-06-26T11:37:34.074Z,8.70
2019-06-26T11:40:06.309Z,8.48
2019-06-26T11:42:38.190Z,8.48
2019-06-26T11:45:09.163Z,8.25
2019-06-26T11:47:39.652Z,9.10
2019-06-26T11:50:11.270Z,8.53
2019-06-26T11:52:41.739Z,8.63
2019-06-26T11:55:12.677Z,8.58
2019-06-26T11:57:43.177Z,8.10
2019-06-26T12:00:16.266Z,9.33
2019-06-26T12:02:46.756Z,8.65
2019-06-26T12:05:18.617Z,8.33
2019-06-26T12:07:49.898Z,8.65
2019-06-26T12:10:20.908Z,7.65
2019-06-26T12:12:51.396Z,8.08
2019-06-26T12:15:23.676Z,8.50
2019-06-26T12:17:54.170Z,8.75
2019-06-26T12:20:24.600Z,6.95
2019-06-26T12:22:55.032Z,7.22
2019-06-26T12:25:25.407Z,6.95
2019-06-26T12:27:55.867Z,7.30
2019-06-26T12:30:26.247Z,7.50
2019-06-26T12:33:03.087Z,6.95
2019-06-26T12:35:28.800Z,6.60
2019-06-26T12:37:59.180Z,6.83
2019-06-26T12:40:31.295Z,7.00
2019-06-26T12:43:01.762Z,6.75
2019-06-26T12:45:32.293Z,7.58
2019-06-26T12:48:02.750Z,7.60
2019-06-26T12:50:35.910Z,7.65
2019-06-26T12:53:05.342Z,10.75
2019-06-26T12:55:35.753Z,6.90
2019-06-26T12:58:14.792Z,7.70
2019-06-26T13:00:39.738Z,6.62
2019-06-26T13:03:10.160Z,6.35
2019-06-26T13:05:40.552Z,7.35
2019-06-26T13:08:10.941Z,6.78
2019-06-26T13:10:49.527Z,6.72
2019-06-26T13:13:15.088Z,7.00
2019-06-26T13:15:45.529Z,7.83
2019-06-26T13:18:15.954Z,7.03
2019-06-26T13:20:52.661Z,7.62
2019-06-26T13:23:18.659Z,7.17
2019-06-26T13:25:49.136Z,6.60
2019-06-26T13:28:19.568Z,7.08
2019-06-26T13:30:53.050Z,7.47
2019-06-26T13:33:22.050Z,7.00
2019-06-26T13:35:52.452Z,5.95
2019-06-26T13:38:27.074Z,7.37
2019-06-26T13:40:56.552Z,7.62
2019-06-26T13:43:26.979Z,6.62
2019-06-26T13:45:59.056Z,7.55
2019-06-26T13:48:29.640Z,7.42
2019-06-26T13:51:09.292Z,6.80
2019-06-26T13:53:32.123Z,7.28
2019-06-26T13:56:02.901Z,7.67
2019-06-26T13:58:33.388Z,6.92
2019-06-26T14:01:04.269Z,6.55
2019-06-26T14:03:39.249Z,6.67
2019-06-26T14:06:09.830Z,6.67
2019-06-26T14:08:40.263Z,6.92
2019-06-26T14:11:10.716Z,6.95
2019-06-26T14:13:42.029Z,6.15
2019-06-26T14:16:12.705Z,6.72
2019-06-26T14:18:43.124Z,7.45
2019-06-26T14:21:24.940Z,7.20
2019-06-26T14:23:45.639Z,6.78
2019-06-26T14:26:17.544Z,6.80
2019-06-26T14:28:48.052Z,6.28
2019-06-26T14:31:25.905Z,5.83
2019-06-26T14:33:56.201Z,5.97
2019-06-26T14:36:26.619Z,6.37
2019-06-26T14:38:59.296Z,6.05
2019-06-26T14:41:29.599Z,6.90
2019-06-26T14:44:02.412Z,6.50
2019-06-26T14:46:32.569Z,6.65
2019-06-26T14:49:02.801Z,6.35
2019-06-26T14:51:46.450Z,6.25
2019-06-26T14:54:06.834Z,6.78
2019-06-26T14:56:37.101Z,6.92
2019-06-26T14:59:07.452Z,6.72
2019-06-26T15:01:37.868Z,6.20
2019-06-26T15:04:09.636Z,6.65
2019-06-26T15:06:39.913Z,6.70
2019-06-26T15:09:10.235Z,6.25
2019-06-26T15:11:40.434Z,6.70
2019-06-26T15:14:10.860Z,6.25
2019-06-26T15:16:41.143Z,6.50
2019-06-26T15:19:11.412Z,6.53
2019-06-26T15:21:54.181Z,6.58
2019-06-26T15:24:15.241Z,6.60
2019-06-26T15:26:45.445Z,6.97
2019-06-26T15:29:15.690Z,8.73
2019-06-26T15:31:45.999Z,6.75
2019-06-26T15:34:17.891Z,6.35
2019-06-26T15:36:48.092Z,6.70
2019-06-26T15:39:18.332Z,7.00
2019-06-26T15:41:48.576Z,7.78
2019-06-26T15:44:18.877Z,6.85
2019-06-26T15:46:49.206Z,6.83
2019-06-26T15:49:19.456Z,7.03
2019-06-26T15:51:49.789Z,7.15
2019-06-26T15:54:20.195Z,7.17
2019-06-26T15:56:50.629Z,6.92
2019-06-26T15:59:21.001Z,7.35
2019-06-26T16:01:54.367Z,7.15
2019-06-26T16:04:26.570Z,6.70
2019-06-26T16:06:58.652Z,6.10
2019-06-26T16:09:28.932Z,7.60
2019-06-26T16:11:59.356Z,6.28
2019-06-26T16:14:29.627Z,5.92
2019-06-26T16:17:01.614Z,6.85
2019-06-26T16:19:33.460Z,6.92
2019-06-26T16:22:03.901Z,7.08
2019-06-26T16:24:34.149Z,6.95
2019-06-26T16:27:04.551Z,6.90
2019-06-26T16:29:34.961Z,6.15
2019-06-26T16:32:05.327Z,6.45
2019-06-26T16:34:35.699Z,6.50
2019-06-26T16:37:06.018Z,6.67
2019-06-26T16:39:36.324Z,6.75
2019-06-26T16:42:06.700Z,6.30
2019-06-26T16:44:37.001Z,5.80
2019-06-26T16:47:07.270Z,6.60
2019-06-26T16:49:37.629Z,6.47
2019-06-26T16:52:08.070Z,6.50
2019-06-26T16:54:39.918Z,7.17
2019-06-26T16:57:10.534Z,7.03
2019-06-26T16:59:40.816Z,6.53
2019-06-26T17:02:11.137Z,7.08
2019-06-26T17:04:41.595Z,7.45
2019-06-26T17:07:12.083Z,6.95
2019-06-26T17:09:44.449Z,6.83
2019-06-26T17:12:14.428Z,6.58
2019-06-26T17:14:44.787Z,7.30
2019-06-26T17:17:16.764Z,6.45
2019-06-26T17:19:47.001Z,7.20
2019-06-26T17:22:17.296Z,6.28
2019-06-26T17:24:47.748Z,7.55
2019-06-26T17:27:18.017Z,6.53
2019-06-26T17:29:48.349Z,7.37
2019-06-26T17:32:18.664Z,7.30
2019-06-26T17:34:49.059Z,7.50
2019-06-26T17:37:19.301Z,6.70
2019-06-26T17:39:49.727Z,6.80
2019-06-26T17:42:20.149Z,6.97
2019-06-26T17:44:50.463Z,6.75
2019-06-26T17:47:20.817Z,6.80
2019-06-26T17:49:51.067Z,7.20
2019-06-26T17:52:21.452Z,7.30
2019-06-26T17:54:51.742Z,6.75
2019-06-26T17:57:21.955Z,6.72
2019-06-26T17:59:52.140Z,7.00
2019-06-26T18:02:24.236Z,6.87
2019-06-26T18:04:56.357Z,7.60
2019-06-26T18:07:26.643Z,6.95
2019-06-26T18:09:57.118Z,7.30
2019-06-26T18:12:27.457Z,7.20
2019-06-26T18:14:57.776Z,7.55
2019-06-26T18:17:28.043Z,7.20
2019-06-26T18:19:58.465Z,7.60
2019-06-26T18:22:28.870Z,7.75
2019-06-26T18:25:00.999Z,7.62
2019-06-26T18:27:31.360Z,8.15
2019-06-26T18:30:02.658Z,7.15
2019-06-26T18:32:32.851Z,7.12
2019-06-26T18:35:03.831Z,8.03
2019-06-26T18:37:34.116Z,8.05
2019-06-26T18:40:09.062Z,8.20
2019-06-26T18:42:39.318Z,7.50
2019-06-26T18:45:09.755Z,7.55
2019-06-26T18:47:39.996Z,8.43
2019-06-26T18:50:10.756Z,8.73
2019-06-26T18:52:41.256Z,9.05
2019-06-26T18:55:11.594Z,9.38
2019-06-26T18:57:42.056Z,9.20
2019-06-26T19:00:12.378Z,8.70
2019-06-26T19:02:42.637Z,9.48
2019-06-26T19:05:13.909Z,8.95
2019-06-26T19:07:44.280Z,9.15
2019-06-26T19:10:14.835Z,9.30
2019-06-26T19:12:45.443Z,9.10
2019-06-26T19:15:16.611Z,10.05
2019-06-26T19:17:48.607Z,9.13
2019-06-26T19:20:19.853Z,9.65
2019-06-26T19:22:50.095Z,9.23
2019-06-26T19:25:20.501Z,9.28
2019-06-26T19:27:50.795Z,8.60
2019-06-26T19:30:21.516Z,7.97
2019-06-26T19:32:52.001Z,8.08
2019-06-26T19:35:22.378Z,8.70
2019-06-26T19:37:52.835Z,9.03
2019-06-26T19:40:24.261Z,8.15
2019-06-26T19:42:55.481Z,8.78
2019-06-26T19:45:26.365Z,8.23
2019-06-26T19:47:58.081Z,9.05
2019-06-26T19:50:28.605Z,9.00
2019-06-26T19:53:01.662Z,8.30
2019-06-26T19:55:32.346Z,9.05
2019-06-26T19:58:02.780Z,8.08
2019-06-26T20:00:34.114Z,8.35
2019-06-26T20:03:04.847Z,8.30
2019-06-26T20:05:35.579Z,8.48
2019-06-26T20:08:06.023Z,8.05
2019-06-26T20:10:36.410Z,9.03
2019-06-26T20:13:06.925Z,8.30
2019-06-26T20:15:39.531Z,8.88
2019-06-26T20:18:10.009Z,8.35
2019-06-26T20:20:40.325Z,8.60
2019-06-26T20:23:10.577Z,8.70
2019-06-26T20:25:43.338Z,9.23
2019-06-26T20:28:13.668Z,9.20
2019-06-26T20:30:44.610Z,10.18
2019-06-26T20:33:15.136Z,9.10
2019-06-26T20:35:47.162Z,8.83
2019-06-26T20:38:17.789Z,9.98
2019-06-26T20:40:48.493Z,9.43
2019-06-26T20:43:18.940Z,9.83
2019-06-26T20:45:49.404Z,9.48
2019-06-26T20:48:20.017Z,10.15
2019-06-26T20:50:50.478Z,10.85
2019-06-26T20:53:22.343Z,9.90
2019-06-26T20:55:54.105Z,9.75
2019-06-26T20:58:24.753Z,9.90
2019-06-26T21:00:56.986Z,9.08
2019-06-26T21:03:28.241Z,10.48
2019-06-26T21:05:58.740Z,9.75
2019-06-26T21:08:29.671Z,9.25
2019-06-26T21:11:00.519Z,9.53
2019-06-26T21:13:31.460Z,9.90
2019-06-26T21:16:01.850Z,10.82
2019-06-26T21:18:32.385Z,10.28
2019-06-26T21:21:02.851Z,11.22
2019-06-26T21:23:34.060Z,9.60
2019-06-26T21:26:04.564Z,9.83
2019-06-26T21:28:36.334Z,10.35
2019-06-26T21:31:07.052Z,10.93
2019-06-26T21:33:39.075Z,10.38
2019-06-26T21:36:09.419Z,10.70
2019-06-26T21:38:41.299Z,10.38
2019-06-26T21:41:11.664Z,10.68
2019-06-26T21:43:42.034Z,12.15
2019-06-26T21:46:13.924Z,10.72
2019-06-26T21:48:44.274Z,11.25
2019-06-26T21:51:14.684Z,11.68
2019-06-26T21:53:45.244Z,11.15
2019-06-26T21:56:15.590Z,11.25
2019-06-26T21:58:45.929Z,11.05
2019-06-26T22:01:16.628Z,11.35
2019-06-26T22:03:47.040Z,11.65
2019-06-26T22:06:17.380Z,11.25
2019-06-26T22:08:47.792Z,11.43
2019-06-26T22:11:18.199Z,11.30
2019-06-26T22:13:49.116Z,11.10
2019-06-26T22:16:19.280Z,11.30
2019-06-26T22:18:49.480Z,10.90
2019-06-26T22:21:19.970Z,11.20
2019-06-26T22:23:50.209Z,10.98
2019-06-26T22:26:20.615Z,11.68
2019-06-26T22:28:50.925Z,11.70
2019-06-26T22:31:21.352Z,11.65
2019-06-26T22:33:51.660Z,12.35
2019-06-26T22:36:22.101Z,11.90
2019-06-26T22:38:52.473Z,11.93
2019-06-26T22:41:22.810Z,11.35
2019-06-26T22:43:53.037Z,12.70
2019-06-26T22:46:23.460Z,12.00
2019-06-26T22:48:53.809Z,12.20
2019-06-26T22:51:25.685Z,11.50
2019-06-26T22:53:56.059Z,12.35
2019-06-26T22:56:27.921Z,12.88
2019-06-26T22:58:58.331Z,11.80
2019-06-26T23:01:28.629Z,12.07
2019-06-26T23:03:58.977Z,12.13
2019-06-26T23:06:29.272Z,13.45
2019-06-26T23:08:59.627Z,12.53
2019-06-26T23:11:29.937Z,12.60
2019-06-26T23:14:00.274Z,14.05
2019-06-26T23:16:30.817Z,12.98
2019-06-26T23:19:01.180Z,13.45
2019-06-26T23:21:33.138Z,13.05
2019-06-26T23:24:03.542Z,14.35
2019-06-26T23:26:35.393Z,14.75
2019-06-26T23:29:05.814Z,14.65
2019-06-26T23:31:36.200Z,13.78
2019-06-26T23:34:06.570Z,14.73
2019-06-26T23:36:36.890Z,14.07
2019-06-26T23:39:07.321Z,13.28
2019-06-26T23:41:37.769Z,13.48
2019-06-26T23:44:08.113Z,13.00
2019-06-26T23:46:38.500Z,13.95
2019-06-26T23:49:08.852Z,14.03
2019-06-26T23:51:39.158Z,14.13
2019-06-26T23:54:09.445Z,14.23
2019-06-26T23:56:40.970Z,13.40
2019-06-26T23:59:11.374Z,14.18
